AGROMETEOROLOŠKI PORTAL

vinorodna pokrajina

Temelj dobrega kmetovanja

Pregled podatkov za lokacijo Črnomelj, meteorološka postaja 859096

Pregled senzorjev na lokaciji

ID Ime Zadnja
vrednost
Datum in čas
meritve
(lokalni čas)
Tip
senzorja
4082 Omočenost lista (1,5 m) (U) 10 U 25.9.2022 22:30 A730WET
5062 Padavine (mm) 0,2 mm 25.9.2022 22:30 Generic 0.2 mm
4081 Relativna zračna vlaga (2 m) (%RH) 92 %RH 25.9.2022 22:30 50YA
4080 Temperatura (2 m) (°C) 14,5 °C 25.9.2022 22:30 50YA

Pregled podatkov zadnjih 24 ur

Zap.
št.
Datum in čas
(lokalni čas)
Črnomelj
Omočenost
lista
(1,5
m)
Padavine Relativna
zračna
vlaga
(2
m)
Temperatura
(2
m)
1 25.9.2022 22:30 10 0,2 91,6 14,5
2 25.9.2022 22:00 9 0,2 88,4 14,8
3 25.9.2022 21:30 2 0 86,3 14,9
4 25.9.2022 21:00 2 0 86,6 15
5 25.9.2022 20:30 1 0 87,4 15,2
6 25.9.2022 20:00 1 0 85,5 15,5
7 25.9.2022 19:30 0 0 83,2 16
8 25.9.2022 19:00 0 0 78 16,7
9 25.9.2022 18:30 0 0 75,9 17,4
10 25.9.2022 18:00 0 0 72,8 17,7
11 25.9.2022 17:30 0 0 66,9 18,4
12 25.9.2022 17:00 0 0 66 18,9
13 25.9.2022 16:30 0 0 63,5 19,9
14 25.9.2022 16:00 0 0 62,1 20,4
15 25.9.2022 15:30 0 0 69 19,1
16 25.9.2022 15:00 0 0 73,2 18
17 25.9.2022 14:30 0 0 72,4 17,9
18 25.9.2022 14:00 0 0 71,2 18
19 25.9.2022 13:30 0 0 69,6 18
20 25.9.2022 13:00 0 0 75,4 16
21 25.9.2022 12:30 0 0 77,9 15,3
22 25.9.2022 12:00 0 0 78,5 14,9
23 25.9.2022 11:30 0 0 78,2 15,2
24 25.9.2022 11:00 0 0 83 14,4
25 25.9.2022 10:30 2 0 91,6 13,2
26 25.9.2022 10:00 3 0 93,7 12,6
27 25.9.2022 09:30 3 0 92,7 12,6
28 25.9.2022 09:00 3 0 92,3 12,2
29 25.9.2022 08:30 4 0 94,7 11,9
30 25.9.2022 08:00 9 0 96,3 11,6
31 25.9.2022 07:30 9 0 96,4 11,5
32 25.9.2022 07:00 9 0 96,5 11,5
33 25.9.2022 06:30 9 0 96,6 11,4
34 25.9.2022 06:00 9 0 96,6 11,3
35 25.9.2022 05:30 10 0 96,5 11,4
36 25.9.2022 05:00 10 0 96 11,5
37 25.9.2022 04:30 9 0 96,1 11,6
38 25.9.2022 04:00 9 0,2 95,3 11,6
39 25.9.2022 03:30 10 0,2 93,9 11,8
40 25.9.2022 03:00 10 0 92 11,9
41 25.9.2022 02:30 10 0 90,4 12,1
42 25.9.2022 02:00 10 0 88,2 12,4
43 25.9.2022 01:30 10 0,2 88,4 12,5
44 25.9.2022 01:00 10 0 83,9 13
45 25.9.2022 00:30 9 0 79,8 13,6
46 25.9.2022 00:00 0 0 73,6 14,4